sensor_id;sensor_type;location;lat;lon;timestamp;temperature;humidity
32348;DHT22;18821;44.800;10.326;2023-04-03T00:01:15;10.50;99.90
32348;DHT22;18821;44.800;10.326;2023-04-03T00:03:41;10.50;99.90
32348;DHT22;18821;44.800;10.326;2023-04-03T00:06:08;10.50;99.90
32348;DHT22;18821;44.800;10.326;2023-04-03T00:08:36;10.50;99.90
32348;DHT22;18821;44.800;10.326;2023-04-03T00:11:03;10.50;99.90
32348;DHT22;18821;44.800;10.326;2023-04-03T00:13:29;10.40;99.90
32348;DHT22;18821;44.800;10.326;2023-04-03T00:15:55;10.30;99.90
32348;DHT22;18821;44.800;10.326;2023-04-03T00:18:21;10.40;1.00
32348;DHT22;18821;44.800;10.326;2023-04-03T00:20:48;10.40;1.00
32348;DHT22;18821;44.800;10.326;2023-04-03T00:23:14;10.50;1.00
32348;DHT22;18821;44.800;10.326;2023-04-03T00:25:40;10.60;99.90
32348;DHT22;18821;44.800;10.326;2023-04-03T00:28:07;10.70;99.90
32348;DHT22;18821;44.800;10.326;2023-04-03T00:30:33;10.70;99.90
32348;DHT22;18821;44.800;10.326;2023-04-03T00:32:59;10.60;1.00
32348;DHT22;18821;44.800;10.326;2023-04-03T00:35:26;10.60;1.00
32348;DHT22;18821;44.800;10.326;2023-04-03T00:37:53;10.60;1.00
32348;DHT22;18821;44.800;10.326;2023-04-03T00:40:20;10.60;1.00
32348;DHT22;18821;44.800;10.326;2023-04-03T00:42:47;10.60;1.00
32348;DHT22;18821;44.800;10.326;2023-04-03T00:47:45;10.60;1.00
32348;DHT22;18821;44.800;10.326;2023-04-03T00:50:11;10.60;1.00
32348;DHT22;18821;44.800;10.326;2023-04-03T00:52:37;10.70;1.00
32348;DHT22;18821;44.800;10.326;2023-04-03T00:55:06;10.70;1.00
32348;DHT22;18821;44.800;10.326;2023-04-03T00:57:33;10.60;1.00
32348;DHT22;18821;44.800;10.326;2023-04-03T01:00:08;10.60;1.00
32348;DHT22;18821;44.800;10.326;2023-04-03T01:02:35;10.70;99.90
32348;DHT22;18821;44.800;10.326;2023-04-03T01:05:02;10.60;99.90
32348;DHT22;18821;44.800;10.326;2023-04-03T01:07:30;10.60;1.00
32348;DHT22;18821;44.800;10.326;2023-04-03T01:09:58;10.70;99.90
32348;DHT22;18821;44.800;10.326;2023-04-03T01:12:37;10.80;99.90
32348;DHT22;18821;44.800;10.326;2023-04-03T01:15:07;10.80;99.90
32348;DHT22;18821;44.800;10.326;2023-04-03T01:17:35;10.80;99.90
32348;DHT22;18821;44.800;10.326;2023-04-03T01:20:45;10.90;99.90
32348;DHT22;18821;44.800;10.326;2023-04-03T01:23:25;10.90;99.90
32348;DHT22;18821;44.800;10.326;2023-04-03T01:25:55;10.90;99.90
32348;DHT22;18821;44.800;10.326;2023-04-03T01:31:13;10.80;99.90
32348;DHT22;18821;44.800;10.326;2023-04-03T01:33:43;10.80;1.00
32348;DHT22;18821;44.800;10.326;2023-04-03T01:36:13;10.60;1.00
32348;DHT22;18821;44.800;10.326;2023-04-03T01:38:39;10.60;1.00
32348;DHT22;18821;44.800;10.326;2023-04-03T01:41:05;10.50;1.00
32348;DHT22;18821;44.800;10.326;2023-04-03T01:43:31;10.50;1.00
32348;DHT22;18821;44.800;10.326;2023-04-03T01:45:57;10.50;1.00
32348;DHT22;18821;44.800;10.326;2023-04-03T01:48:23;10.50;1.00
32348;DHT22;18821;44.800;10.326;2023-04-03T01:50:49;10.40;1.00
32348;DHT22;18821;44.800;10.326;2023-04-03T01:53:15;10.40;1.00
32348;DHT22;18821;44.800;10.326;2023-04-03T01:55:41;10.40;1.00
32348;DHT22;18821;44.800;10.326;2023-04-03T01:58:07;10.40;1.00
32348;DHT22;18821;44.800;10.326;2023-04-03T02:00:33;10.40;1.00
32348;DHT22;18821;44.800;10.326;2023-04-03T02:02:59;10.30;1.00
32348;DHT22;18821;44.800;10.326;2023-04-03T02:05:29;10.30;1.00
32348;DHT22;18821;44.800;10.326;2023-04-03T02:07:55;10.30;1.00
32348;DHT22;18821;44.800;10.326;2023-04-03T02:10:22;10.20;1.00
32348;DHT22;18821;44.800;10.326;2023-04-03T02:12:48;10.20;1.00
32348;DHT22;18821;44.800;10.326;2023-04-03T02:15:13;10.20;1.00
32348;DHT22;18821;44.800;10.326;2023-04-03T02:17:40;10.20;1.00
32348;DHT22;18821;44.800;10.326;2023-04-03T02:20:07;10.10;1.00
32348;DHT22;18821;44.800;10.326;2023-04-03T02:22:33;10.10;1.00
32348;DHT22;18821;44.800;10.326;2023-04-03T02:24:59;10.10;1.00
32348;DHT22;18821;44.800;10.326;2023-04-03T02:27:25;10.10;1.00
32348;DHT22;18821;44.800;10.326;2023-04-03T02:29:50;10.00;1.00
32348;DHT22;18821;44.800;10.326;2023-04-03T02:32:17;10.00;1.00
32348;DHT22;18821;44.800;10.326;2023-04-03T02:34:44;10.00;1.00
32348;DHT22;18821;44.800;10.326;2023-04-03T02:37:12;9.90;1.00
32348;DHT22;18821;44.800;10.326;2023-04-03T02:39:38;9.90;1.00
32348;DHT22;18821;44.800;10.326;2023-04-03T02:42:04;9.90;1.00
32348;DHT22;18821;44.800;10.326;2023-04-03T02:44:30;9.90;1.00
32348;DHT22;18821;44.800;10.326;2023-04-03T02:46:57;9.90;1.00
32348;DHT22;18821;44.800;10.326;2023-04-03T02:49:23;9.90;1.00
32348;DHT22;18821;44.800;10.326;2023-04-03T02:51:49;9.90;1.00
32348;DHT22;18821;44.800;10.326;2023-04-03T02:54:16;9.90;1.00
32348;DHT22;18821;44.800;10.326;2023-04-03T02:56:47;9.90;1.00
32348;DHT22;18821;44.800;10.326;2023-04-03T02:59:13;9.90;1.00
32348;DHT22;18821;44.800;10.326;2023-04-03T03:01:40;9.90;1.00
32348;DHT22;18821;44.800;10.326;2023-04-03T03:04:06;9.90;1.00
32348;DHT22;18821;44.800;10.326;2023-04-03T03:06:32;9.90;1.00
32348;DHT22;18821;44.800;10.326;2023-04-03T03:08:58;9.80;1.00
32348;DHT22;18821;44.800;10.326;2023-04-03T03:11:25;9.70;1.00
32348;DHT22;18821;44.800;10.326;2023-04-03T03:13:52;9.80;1.00
32348;DHT22;18821;44.800;10.326;2023-04-03T03:16:18;9.70;1.00
32348;DHT22;18821;44.800;10.326;2023-04-03T03:18:44;9.80;1.00
32348;DHT22;18821;44.800;10.326;2023-04-03T03:21:10;9.80;1.00
32348;DHT22;18821;44.800;10.326;2023-04-03T03:23:36;9.80;1.00
32348;DHT22;18821;44.800;10.326;2023-04-03T03:26:06;9.80;1.00
32348;DHT22;18821;44.800;10.326;2023-04-03T03:28:34;9.80;1.00
32348;DHT22;18821;44.800;10.326;2023-04-03T03:31:02;9.80;1.00
32348;DHT22;18821;44.800;10.326;2023-04-03T03:33:31;9.70;1.00
32348;DHT22;18821;44.800;10.326;2023-04-03T03:35:57;9.70;1.00
32348;DHT22;18821;44.800;10.326;2023-04-03T03:38:23;9.70;1.00
32348;DHT22;18821;44.800;10.326;2023-04-03T03:40:50;9.70;1.00
32348;DHT22;18821;44.800;10.326;2023-04-03T03:43:18;9.70;1.00
32348;DHT22;18821;44.800;10.326;2023-04-03T03:45:50;9.60;1.00
32348;DHT22;18821;44.800;10.326;2023-04-03T03:48:16;9.60;1.00
32348;DHT22;18821;44.800;10.326;2023-04-03T03:50:42;9.60;1.00
32348;DHT22;18821;44.800;10.326;2023-04-03T03:53:08;9.60;1.00
32348;DHT22;18821;44.800;10.326;2023-04-03T03:55:35;9.60;1.00
32348;DHT22;18821;44.800;10.326;2023-04-03T03:58:01;9.50;1.00
32348;DHT22;18821;44.800;10.326;2023-04-03T04:00:29;9.50;1.00
32348;DHT22;18821;44.800;10.326;2023-04-03T04:02:56;9.40;1.00
32348;DHT22;18821;44.800;10.326;2023-04-03T04:05:24;9.30;1.00
32348;DHT22;18821;44.800;10.326;2023-04-03T04:07:51;9.30;1.00
32348;DHT22;18821;44.800;10.326;2023-04-03T04:10:17;9.30;1.00
32348;DHT22;18821;44.800;10.326;2023-04-03T04:12:44;9.20;1.00
32348;DHT22;18821;44.800;10.326;2023-04-03T04:15:11;9.20;1.00
32348;DHT22;18821;44.800;10.326;2023-04-03T04:17:38;9.20;1.00
32348;DHT22;18821;44.800;10.326;2023-04-03T04:20:09;9.30;1.00
32348;DHT22;18821;44.800;10.326;2023-04-03T04:22:36;9.30;1.00
32348;DHT22;18821;44.800;10.326;2023-04-03T04:25:03;9.30;1.00
32348;DHT22;18821;44.800;10.326;2023-04-03T04:27:30;9.30;1.00
32348;DHT22;18821;44.800;10.326;2023-04-03T04:29:56;9.20;1.00
32348;DHT22;18821;44.800;10.326;2023-04-03T04:32:22;9.20;1.00
32348;DHT22;18821;44.800;10.326;2023-04-03T04:34:48;9.20;1.00
32348;DHT22;18821;44.800;10.326;2023-04-03T04:37:14;9.20;1.00
32348;DHT22;18821;44.800;10.326;2023-04-03T04:39:40;9.20;1.00
32348;DHT22;18821;44.800;10.326;2023-04-03T04:42:06;9.20;1.00
32348;DHT22;18821;44.800;10.326;2023-04-03T04:44:39;9.20;1.00
32348;DHT22;18821;44.800;10.326;2023-04-03T04:47:06;9.20;1.00
32348;DHT22;18821;44.800;10.326;2023-04-03T04:49:32;9.20;1.00
32348;DHT22;18821;44.800;10.326;2023-04-03T04:51:58;9.20;1.00
32348;DHT22;18821;44.800;10.326;2023-04-03T04:54:28;9.30;1.00
32348;DHT22;18821;44.800;10.326;2023-04-03T04:56:54;9.20;1.00
32348;DHT22;18821;44.800;10.326;2023-04-03T04:59:21;9.10;1.00
32348;DHT22;18821;44.800;10.326;2023-04-03T05:01:48;9.10;1.00
32348;DHT22;18821;44.800;10.326;2023-04-03T05:04:16;9.00;1.00
32348;DHT22;18821;44.800;10.326;2023-04-03T05:06:44;9.00;1.00
32348;DHT22;18821;44.800;10.326;2023-04-03T05:09:14;9.00;1.00
32348;DHT22;18821;44.800;10.326;2023-04-03T05:11:42;8.90;1.00
32348;DHT22;18821;44.800;10.326;2023-04-03T05:14:09;8.90;1.00
32348;DHT22;18821;44.800;10.326;2023-04-03T05:16:36;8.80;1.00
32348;DHT22;18821;44.800;10.326;2023-04-03T05:19:02;8.80;1.00
32348;DHT22;18821;44.800;10.326;2023-04-03T05:21:29;8.80;1.00
32348;DHT22;18821;44.800;10.326;2023-04-03T05:23:59;8.90;1.00
32348;DHT22;18821;44.800;10.326;2023-04-03T05:26:30;8.80;1.00
32348;DHT22;18821;44.800;10.326;2023-04-03T05:28:56;9.00;1.00
32348;DHT22;18821;44.800;10.326;2023-04-03T05:31:22;9.00;1.00
32348;DHT22;18821;44.800;10.326;2023-04-03T05:33:49;9.10;1.00
32348;DHT22;18821;44.800;10.326;2023-04-03T05:36:17;9.10;1.00
32348;DHT22;18821;44.800;10.326;2023-04-03T05:38:49;9.10;1.00
32348;DHT22;18821;44.800;10.326;2023-04-03T05:41:15;9.30;1.00
32348;DHT22;18821;44.800;10.326;2023-04-03T05:43:44;9.30;1.00
32348;DHT22;18821;44.800;10.326;2023-04-03T05:46:16;9.40;1.00
32348;DHT22;18821;44.800;10.326;2023-04-03T05:48:44;9.50;1.00
32348;DHT22;18821;44.800;10.326;2023-04-03T05:51:21;9.70;1.00
32348;DHT22;18821;44.800;10.326;2023-04-03T05:53:55;9.80;1.00
32348;DHT22;18821;44.800;10.326;2023-04-03T05:56:21;10.00;1.00
32348;DHT22;18821;44.800;10.326;2023-04-03T05:58:47;10.20;1.00
32348;DHT22;18821;44.800;10.326;2023-04-03T06:01:13;10.50;1.00
32348;DHT22;18821;44.800;10.326;2023-04-03T06:03:41;10.70;1.00
32348;DHT22;18821;44.800;10.326;2023-04-03T06:06:13;11.10;99.90
32348;DHT22;18821;44.800;10.326;2023-04-03T06:08:39;11.40;99.90
32348;DHT22;18821;44.800;10.326;2023-04-03T06:11:05;11.70;99.90
32348;DHT22;18821;44.800;10.326;2023-04-03T06:13:32;11.90;99.90
32348;DHT22;18821;44.800;10.326;2023-04-03T06:15:59;12.00;99.90
32348;DHT22;18821;44.800;10.326;2023-04-03T06:18:25;12.20;99.90
32348;DHT22;18821;44.800;10.326;2023-04-03T06:20:51;12.50;66.20
32348;DHT22;18821;44.800;10.326;2023-04-03T06:23:17;12.80;1.00
32348;DHT22;18821;44.800;10.326;2023-04-03T06:25:43;12.80;1.00
32348;DHT22;18821;44.800;10.326;2023-04-03T06:28:09;12.90;1.00
32348;DHT22;18821;44.800;10.326;2023-04-03T06:30:36;13.00;99.90
32348;DHT22;18821;44.800;10.326;2023-04-03T06:33:03;12.80;1.00
32348;DHT22;18821;44.800;10.326;2023-04-03T06:35:29;12.80;1.00
32348;DHT22;18821;44.800;10.326;2023-04-03T06:37:56;12.90;1.00
32348;DHT22;18821;44.800;10.326;2023-04-03T06:40:24;12.40;1.00
32348;DHT22;18821;44.800;10.326;2023-04-03T06:42:50;12.00;99.90
32348;DHT22;18821;44.800;10.326;2023-04-03T06:45:18;11.80;99.90
32348;DHT22;18821;44.800;10.326;2023-04-03T06:47:45;11.80;99.90
32348;DHT22;18821;44.800;10.326;2023-04-03T06:50:11;11.60;99.90
32348;DHT22;18821;44.800;10.326;2023-04-03T06:52:40;11.30;99.90
32348;DHT22;18821;44.800;10.326;2023-04-03T06:55:06;11.50;99.90
32348;DHT22;18821;44.800;10.326;2023-04-03T06:57:32;11.70;99.90
32348;DHT22;18821;44.800;10.326;2023-04-03T06:59:58;11.50;99.90
32348;DHT22;18821;44.800;10.326;2023-04-03T07:02:24;11.40;99.90
32348;DHT22;18821;44.800;10.326;2023-04-03T07:04:50;11.30;1.00
32348;DHT22;18821;44.800;10.326;2023-04-03T07:07:16;11.40;1.00
32348;DHT22;18821;44.800;10.326;2023-04-03T07:09:43;11.40;1.00
32348;DHT22;18821;44.800;10.326;2023-04-03T07:12:09;11.70;1.00
32348;DHT22;18821;44.800;10.326;2023-04-03T07:14:35;11.90;1.00
32348;DHT22;18821;44.800;10.326;2023-04-03T07:17:01;12.10;1.00
32348;DHT22;18821;44.800;10.326;2023-04-03T07:19:27;12.30;1.00
32348;DHT22;18821;44.800;10.326;2023-04-03T07:21:53;12.50;99.90
32348;DHT22;18821;44.800;10.326;2023-04-03T07:24:20;12.40;1.00
32348;DHT22;18821;44.800;10.326;2023-04-03T07:26:49;12.40;1.00
32348;DHT22;18821;44.800;10.326;2023-04-03T07:29:15;12.60;1.00
32348;DHT22;18821;44.800;10.326;2023-04-03T07:31:41;12.60;1.00
32348;DHT22;18821;44.800;10.326;2023-04-03T07:34:08;12.70;1.00
32348;DHT22;18821;44.800;10.326;2023-04-03T07:36:34;12.70;1.00
32348;DHT22;18821;44.800;10.326;2023-04-03T07:39:00;12.90;1.00
32348;DHT22;18821;44.800;10.326;2023-04-03T07:41:26;13.00;1.00
32348;DHT22;18821;44.800;10.326;2023-04-03T07:43:52;13.00;1.00
32348;DHT22;18821;44.800;10.326;2023-04-03T07:46:19;13.00;1.00
32348;DHT22;18821;44.800;10.326;2023-04-03T07:48:46;13.10;1.00
32348;DHT22;18821;44.800;10.326;2023-04-03T07:51:12;12.90;1.00
32348;DHT22;18821;44.800;10.326;2023-04-03T07:53:38;12.90;1.00
32348;DHT22;18821;44.800;10.326;2023-04-03T07:56:04;12.80;1.00
32348;DHT22;18821;44.800;10.326;2023-04-03T07:58:31;12.90;1.00
32348;DHT22;18821;44.800;10.326;2023-04-03T08:00:57;13.00;1.00
32348;DHT22;18821;44.800;10.326;2023-04-03T08:03:23;13.00;1.00
32348;DHT22;18821;44.800;10.326;2023-04-03T08:05:49;13.10;1.00
32348;DHT22;18821;44.800;10.326;2023-04-03T08:08:18;13.30;1.00
32348;DHT22;18821;44.800;10.326;2023-04-03T08:10:48;13.20;1.00
32348;DHT22;18821;44.800;10.326;2023-04-03T08:13:14;13.20;1.00
32348;DHT22;18821;44.800;10.326;2023-04-03T08:15:40;13.30;1.00
32348;DHT22;18821;44.800;10.326;2023-04-03T08:18:06;13.40;1.00
32348;DHT22;18821;44.800;10.326;2023-04-03T08:20:32;13.60;1.00
32348;DHT22;18821;44.800;10.326;2023-04-03T08:22:58;13.70;1.00
32348;DHT22;18821;44.800;10.326;2023-04-03T08:25:24;13.90;1.00
32348;DHT22;18821;44.800;10.326;2023-04-03T08:27:50;13.90;1.00
32348;DHT22;18821;44.800;10.326;2023-04-03T08:30:16;13.70;1.00
32348;DHT22;18821;44.800;10.326;2023-04-03T08:32:42;13.40;1.00
32348;DHT22;18821;44.800;10.326;2023-04-03T08:35:10;13.50;1.00
32348;DHT22;18821;44.800;10.326;2023-04-03T08:37:37;13.60;1.00
32348;DHT22;18821;44.800;10.326;2023-04-03T08:40:07;13.70;1.00
32348;DHT22;18821;44.800;10.326;2023-04-03T08:42:46;13.90;1.00
32348;DHT22;18821;44.800;10.326;2023-04-03T08:45:18;14.10;1.00
32348;DHT22;18821;44.800;10.326;2023-04-03T08:48:13;14.00;1.00
32348;DHT22;18821;44.800;10.326;2023-04-03T08:50:46;14.10;1.00
32348;DHT22;18821;44.800;10.326;2023-04-03T08:53:22;14.30;1.00
32348;DHT22;18821;44.800;10.326;2023-04-03T08:55:50;14.30;1.00
32348;DHT22;18821;44.800;10.326;2023-04-03T08:58:27;14.40;1.00
32348;DHT22;18821;44.800;10.326;2023-04-03T09:01:20;14.40;1.00
32348;DHT22;18821;44.800;10.326;2023-04-03T09:03:47;14.40;1.00
32348;DHT22;18821;44.800;10.326;2023-04-03T09:06:21;14.30;1.00
32348;DHT22;18821;44.800;10.326;2023-04-03T09:09:11;14.60;1.00
32348;DHT22;18821;44.800;10.326;2023-04-03T09:15:06;14.80;1.00
32348;DHT22;18821;44.800;10.326;2023-04-03T09:20:17;14.60;1.00
32348;DHT22;18821;44.800;10.326;2023-04-03T09:22:45;14.50;1.00
32348;DHT22;18821;44.800;10.326;2023-04-03T09:25:23;14.70;1.00
32348;DHT22;18821;44.800;10.326;2023-04-03T09:27:51;14.90;1.00
32348;DHT22;18821;44.800;10.326;2023-04-03T09:30:24;15.10;1.00
32348;DHT22;18821;44.800;10.326;2023-04-03T09:32:55;15.30;1.00
32348;DHT22;18821;44.800;10.326;2023-04-03T09:35:33;15.40;99.90
32348;DHT22;18821;44.800;10.326;2023-04-03T09:38:21;15.00;99.90
32348;DHT22;18821;44.800;10.326;2023-04-03T09:40:49;15.10;99.90
32348;DHT22;18821;44.800;10.326;2023-04-03T09:45:43;15.70;99.90
32348;DHT22;18821;44.800;10.326;2023-04-03T09:51:00;16.00;99.90
32348;DHT22;18821;44.800;10.326;2023-04-03T09:53:34;16.00;47.70
32348;DHT22;18821;44.800;10.326;2023-04-03T09:56:18;16.40;1.00
32348;DHT22;18821;44.800;10.326;2023-04-03T10:01:38;16.30;1.00
32348;DHT22;18821;44.800;10.326;2023-04-03T10:06:41;15.90;1.00
32348;DHT22;18821;44.800;10.326;2023-04-03T10:09:30;15.80;1.00
32348;DHT22;18821;44.800;10.326;2023-04-03T10:12:10;16.00;99.90
32348;DHT22;18821;44.800;10.326;2023-04-03T10:14:57;16.10;1.00
32348;DHT22;18821;44.800;10.326;2023-04-03T10:17:47;16.20;99.90
32348;DHT22;18821;44.800;10.326;2023-04-03T10:23:24;16.30;99.90
32348;DHT22;18821;44.800;10.326;2023-04-03T10:26:06;16.70;1.00
32348;DHT22;18821;44.800;10.326;2023-04-03T10:29:15;16.70;99.90
32348;DHT22;18821;44.800;10.326;2023-04-03T10:31:45;16.70;99.90
32348;DHT22;18821;44.800;10.326;2023-04-03T10:34:30;16.80;99.90
32348;DHT22;18821;44.800;10.326;2023-04-03T10:42:40;17.30;1.00
32348;DHT22;18821;44.800;10.326;2023-04-03T10:48:07;17.10;99.90
32348;DHT22;18821;44.800;10.326;2023-04-03T10:56:03;16.50;99.90
32348;DHT22;18821;44.800;10.326;2023-04-03T10:58:45;16.40;1.00
32348;DHT22;18821;44.800;10.326;2023-04-03T11:01:20;16.00;99.90
32348;DHT22;18821;44.800;10.326;2023-04-03T11:03:52;15.90;1.00
32348;DHT22;18821;44.800;10.326;2023-04-03T11:06:20;16.20;99.90
32348;DHT22;18821;44.800;10.326;2023-04-03T11:09:02;16.00;99.90
32348;DHT22;18821;44.800;10.326;2023-04-03T11:11:34;15.90;99.90
32348;DHT22;18821;44.800;10.326;2023-04-03T11:16:55;16.00;99.90
32348;DHT22;18821;44.800;10.326;2023-04-03T11:19:34;16.10;99.90
32348;DHT22;18821;44.800;10.326;2023-04-03T11:22:08;16.10;77.70
32348;DHT22;18821;44.800;10.326;2023-04-03T11:24:39;16.00;1.00
32348;DHT22;18821;44.800;10.326;2023-04-03T11:27:16;16.30;99.90
32348;DHT22;18821;44.800;10.326;2023-04-03T11:29:46;16.70;1.00
32348;DHT22;18821;44.800;10.326;2023-04-03T11:35:05;16.90;6.50
32348;DHT22;18821;44.800;10.326;2023-04-03T11:37:41;17.00;1.00
32348;DHT22;18821;44.800;10.326;2023-04-03T11:40:24;16.80;99.90
32348;DHT22;18821;44.800;10.326;2023-04-03T11:43:03;16.50;99.90
32348;DHT22;18821;44.800;10.326;2023-04-03T11:45:37;16.30;99.90
32348;DHT22;18821;44.800;10.326;2023-04-03T11:50:49;16.20;99.90
32348;DHT22;18821;44.800;10.326;2023-04-03T11:53:25;16.10;99.90
32348;DHT22;18821;44.800;10.326;2023-04-03T11:58:34;16.50;63.00
32348;DHT22;18821;44.800;10.326;2023-04-03T12:01:04;16.60;1.00
32348;DHT22;18821;44.800;10.326;2023-04-03T12:08:48;16.80;99.90
32348;DHT22;18821;44.800;10.326;2023-04-03T12:11:25;16.90;99.90
32348;DHT22;18821;44.800;10.326;2023-04-03T12:16:32;16.90;99.90
32348;DHT22;18821;44.800;10.326;2023-04-03T12:24:45;17.20;99.90
32348;DHT22;18821;44.800;10.326;2023-04-03T12:27:33;16.80;99.90
32348;DHT22;18821;44.800;10.326;2023-04-03T12:43:17;17.00;99.90
32348;DHT22;18821;44.800;10.326;2023-04-03T12:45:52;17.00;99.90
32348;DHT22;18821;44.800;10.326;2023-04-03T12:48:27;17.20;99.90
32348;DHT22;18821;44.800;10.326;2023-04-03T12:50:54;17.20;99.90
32348;DHT22;18821;44.800;10.326;2023-04-03T12:53:24;17.30;98.80
32348;DHT22;18821;44.800;10.326;2023-04-03T12:56:04;17.40;90.80
32348;DHT22;18821;44.800;10.326;2023-04-03T12:58:42;17.50;50.30
32348;DHT22;18821;44.800;10.326;2023-04-03T13:01:17;17.30;41.80
32348;DHT22;18821;44.800;10.326;2023-04-03T13:03:46;17.10;21.20
32348;DHT22;18821;44.800;10.326;2023-04-03T13:06:26;17.20;23.60
32348;DHT22;18821;44.800;10.326;2023-04-03T13:08:55;17.20;5.30
32348;DHT22;18821;44.800;10.326;2023-04-03T13:11:30;17.10;14.70
32348;DHT22;18821;44.800;10.326;2023-04-03T13:14:04;17.00;60.10
32348;DHT22;18821;44.800;10.326;2023-04-03T13:16:33;17.10;46.60
32348;DHT22;18821;44.800;10.326;2023-04-03T13:18:59;17.00;51.80
32348;DHT22;18821;44.800;10.326;2023-04-03T13:21:28;17.00;89.90
32348;DHT22;18821;44.800;10.326;2023-04-03T13:23:57;17.10;99.90
32348;DHT22;18821;44.800;10.326;2023-04-03T13:26:26;17.10;99.90
32348;DHT22;18821;44.800;10.326;2023-04-03T13:28:56;17.30;99.90
32348;DHT22;18821;44.800;10.326;2023-04-03T13:31:26;17.60;99.90
32348;DHT22;18821;44.800;10.326;2023-04-03T13:34:06;17.60;99.90
32348;DHT22;18821;44.800;10.326;2023-04-03T13:36:36;17.80;99.90
32348;DHT22;18821;44.800;10.326;2023-04-03T13:41:33;17.70;99.90
32348;DHT22;18821;44.800;10.326;2023-04-03T13:46:55;17.70;1.00
32348;DHT22;18821;44.800;10.326;2023-04-03T13:49:32;17.70;1.00
32348;DHT22;18821;44.800;10.326;2023-04-03T13:51:58;17.60;1.00
32348;DHT22;18821;44.800;10.326;2023-04-03T13:54:35;17.50;1.00
32348;DHT22;18821;44.800;10.326;2023-04-03T13:57:02;17.10;99.90
32348;DHT22;18821;44.800;10.326;2023-04-03T13:59:32;17.00;1.00
32348;DHT22;18821;44.800;10.326;2023-04-03T14:06:58;17.10;1.00
32348;DHT22;18821;44.800;10.326;2023-04-03T14:09:26;17.10;99.90
32348;DHT22;18821;44.800;10.326;2023-04-03T14:11:55;16.80;99.90
32348;DHT22;18821;44.800;10.326;2023-04-03T14:14:27;16.60;99.90
32348;DHT22;18821;44.800;10.326;2023-04-03T14:16:56;17.00;99.90
32348;DHT22;18821;44.800;10.326;2023-04-03T14:19:30;17.10;99.90
32348;DHT22;18821;44.800;10.326;2023-04-03T14:21:56;16.90;99.90
32348;DHT22;18821;44.800;10.326;2023-04-03T14:24:23;16.90;99.90
32348;DHT22;18821;44.800;10.326;2023-04-03T14:26:52;16.60;99.90
32348;DHT22;18821;44.800;10.326;2023-04-03T14:29:19;16.20;1.00
32348;DHT22;18821;44.800;10.326;2023-04-03T14:31:47;16.00;1.00
32348;DHT22;18821;44.800;10.326;2023-04-03T14:34:14;16.10;1.00
32348;DHT22;18821;44.800;10.326;2023-04-03T14:36:42;16.00;1.00
32348;DHT22;18821;44.800;10.326;2023-04-03T14:39:16;16.30;1.00
32348;DHT22;18821;44.800;10.326;2023-04-03T14:41:43;16.30;1.00
32348;DHT22;18821;44.800;10.326;2023-04-03T14:44:09;16.20;1.00
32348;DHT22;18821;44.800;10.326;2023-04-03T14:46:37;16.30;1.00
32348;DHT22;18821;44.800;10.326;2023-04-03T14:49:06;16.20;1.00
32348;DHT22;18821;44.800;10.326;2023-04-03T14:51:38;16.30;1.00
32348;DHT22;18821;44.800;10.326;2023-04-03T14:54:05;16.20;1.00
32348;DHT22;18821;44.800;10.326;2023-04-03T14:56:32;16.20;99.90
32348;DHT22;18821;44.800;10.326;2023-04-03T14:59:01;15.90;99.90
32348;DHT22;18821;44.800;10.326;2023-04-03T15:01:28;15.80;99.90
32348;DHT22;18821;44.800;10.326;2023-04-03T15:03:54;15.80;99.90
32348;DHT22;18821;44.800;10.326;2023-04-03T15:06:20;15.70;99.90
32348;DHT22;18821;44.800;10.326;2023-04-03T15:08:47;15.70;99.90
32348;DHT22;18821;44.800;10.326;2023-04-03T15:11:14;15.90;99.90
32348;DHT22;18821;44.800;10.326;2023-04-03T15:13:40;15.90;60.70
32348;DHT22;18821;44.800;10.326;2023-04-03T15:16:15;16.00;1.00
32348;DHT22;18821;44.800;10.326;2023-04-03T15:18:42;16.10;1.00
32348;DHT22;18821;44.800;10.326;2023-04-03T15:21:09;16.20;1.00
32348;DHT22;18821;44.800;10.326;2023-04-03T15:23:35;16.30;1.00
32348;DHT22;18821;44.800;10.326;2023-04-03T15:26:01;16.40;1.00
32348;DHT22;18821;44.800;10.326;2023-04-03T15:28:42;16.40;1.00
32348;DHT22;18821;44.800;10.326;2023-04-03T15:31:09;16.10;1.00
32348;DHT22;18821;44.800;10.326;2023-04-03T15:33:35;16.10;99.90
32348;DHT22;18821;44.800;10.326;2023-04-03T15:36:03;15.80;99.90
32348;DHT22;18821;44.800;10.326;2023-04-03T15:38:29;15.90;99.90
32348;DHT22;18821;44.800;10.326;2023-04-03T15:40:55;16.00;99.90
32348;DHT22;18821;44.800;10.326;2023-04-03T15:43:22;15.90;99.90
32348;DHT22;18821;44.800;10.326;2023-04-03T15:45:49;15.70;99.90
32348;DHT22;18821;44.800;10.326;2023-04-03T15:48:16;15.70;99.90
32348;DHT22;18821;44.800;10.326;2023-04-03T15:50:42;15.60;99.90
32348;DHT22;18821;44.800;10.326;2023-04-03T15:53:09;15.60;99.90
32348;DHT22;18821;44.800;10.326;2023-04-03T15:55:37;15.40;99.90
32348;DHT22;18821;44.800;10.326;2023-04-03T15:58:03;15.40;99.90
32348;DHT22;18821;44.800;10.326;2023-04-03T16:00:30;15.40;99.90
32348;DHT22;18821;44.800;10.326;2023-04-03T16:03:00;15.20;99.90
32348;DHT22;18821;44.800;10.326;2023-04-03T16:05:30;15.10;99.90
32348;DHT22;18821;44.800;10.326;2023-04-03T16:07:57;15.20;99.90
32348;DHT22;18821;44.800;10.326;2023-04-03T16:10:24;15.30;99.90
32348;DHT22;18821;44.800;10.326;2023-04-03T16:12:50;15.20;99.90
32348;DHT22;18821;44.800;10.326;2023-04-03T16:15:16;15.20;99.90
32348;DHT22;18821;44.800;10.326;2023-04-03T16:17:42;15.10;99.90
32348;DHT22;18821;44.800;10.326;2023-04-03T16:20:10;15.00;99.90
32348;DHT22;18821;44.800;10.326;2023-04-03T16:22:37;15.00;99.90
32348;DHT22;18821;44.800;10.326;2023-04-03T16:25:04;14.90;99.90
32348;DHT22;18821;44.800;10.326;2023-04-03T16:27:31;14.80;99.90
32348;DHT22;18821;44.800;10.326;2023-04-03T16:29:57;14.80;99.90
32348;DHT22;18821;44.800;10.326;2023-04-03T16:32:25;14.80;99.90
32348;DHT22;18821;44.800;10.326;2023-04-03T16:34:52;14.80;99.90
32348;DHT22;18821;44.800;10.326;2023-04-03T16:37:19;14.80;99.90
32348;DHT22;18821;44.800;10.326;2023-04-03T16:39:45;14.80;99.90
32348;DHT22;18821;44.800;10.326;2023-04-03T16:42:11;14.80;99.90
32348;DHT22;18821;44.800;10.326;2023-04-03T16:44:37;14.90;99.90
32348;DHT22;18821;44.800;10.326;2023-04-03T16:47:06;14.80;99.90
32348;DHT22;18821;44.800;10.326;2023-04-03T16:49:32;14.80;99.90
32348;DHT22;18821;44.800;10.326;2023-04-03T16:52:00;14.50;99.90
32348;DHT22;18821;44.800;10.326;2023-04-03T16:54:26;14.40;99.90
32348;DHT22;18821;44.800;10.326;2023-04-03T16:56:53;14.30;99.90
32348;DHT22;18821;44.800;10.326;2023-04-03T16:59:18;14.20;99.90
32348;DHT22;18821;44.800;10.326;2023-04-03T17:01:44;14.30;99.90
32348;DHT22;18821;44.800;10.326;2023-04-03T17:04:10;14.20;99.90
32348;DHT22;18821;44.800;10.326;2023-04-03T17:06:36;14.10;99.90